sensor_id;sensor_type;location;lat;lon;timestamp;temperature;humidity
14301;DHT22;7234;59.306;18.024;2024-03-02T00:01:20;15.30;99.90
14301;DHT22;7234;59.306;18.024;2024-03-02T00:03:48;15.60;99.90
14301;DHT22;7234;59.306;18.024;2024-03-02T00:06:20;16.10;99.90
14301;DHT22;7234;59.306;18.024;2024-03-02T00:08:49;16.10;99.90
14301;DHT22;7234;59.306;18.024;2024-03-02T00:11:16;16.50;99.90
14301;DHT22;7234;59.306;18.024;2024-03-02T00:13:45;16.70;99.90
14301;DHT22;7234;59.306;18.024;2024-03-02T00:16:12;17.00;99.90
14301;DHT22;7234;59.306;18.024;2024-03-02T00:18:44;17.50;99.90
14301;DHT22;7234;59.306;18.024;2024-03-02T00:21:11;17.50;99.90
14301;DHT22;7234;59.306;18.024;2024-03-02T00:23:40;17.40;99.90
14301;DHT22;7234;59.306;18.024;2024-03-02T00:26:11;16.90;99.90
14301;DHT22;7234;59.306;18.024;2024-03-02T00:28:39;16.30;99.90
14301;DHT22;7234;59.306;18.024;2024-03-02T00:31:12;16.20;99.90
14301;DHT22;7234;59.306;18.024;2024-03-02T00:33:42;16.10;99.90
14301;DHT22;7234;59.306;18.024;2024-03-02T00:36:13;15.80;99.90
14301;DHT22;7234;59.306;18.024;2024-03-02T00:38:44;15.50;99.90
14301;DHT22;7234;59.306;18.024;2024-03-02T00:41:21;15.40;99.90
14301;DHT22;7234;59.306;18.024;2024-03-02T00:43:57;15.40;99.90
14301;DHT22;7234;59.306;18.024;2024-03-02T00:46:26;15.80;99.90
14301;DHT22;7234;59.306;18.024;2024-03-02T00:48:56;15.80;99.90
14301;DHT22;7234;59.306;18.024;2024-03-02T00:51:25;16.00;99.90
14301;DHT22;7234;59.306;18.024;2024-03-02T00:53:54;15.80;99.90
14301;DHT22;7234;59.306;18.024;2024-03-02T00:56:25;15.70;99.90
14301;DHT22;7234;59.306;18.024;2024-03-02T00:58:53;15.90;99.90
14301;DHT22;7234;59.306;18.024;2024-03-02T01:01:20;16.40;99.90
14301;DHT22;7234;59.306;18.024;2024-03-02T01:03:48;16.40;99.90
14301;DHT22;7234;59.306;18.024;2024-03-02T01:06:15;16.30;99.90
14301;DHT22;7234;59.306;18.024;2024-03-02T01:08:43;16.60;99.90
14301;DHT22;7234;59.306;18.024;2024-03-02T01:11:12;17.30;99.90
14301;DHT22;7234;59.306;18.024;2024-03-02T01:13:40;17.60;99.90
14301;DHT22;7234;59.306;18.024;2024-03-02T01:16:07;17.70;99.90
14301;DHT22;7234;59.306;18.024;2024-03-02T01:18:34;17.50;99.90
14301;DHT22;7234;59.306;18.024;2024-03-02T01:21:02;17.30;99.90
14301;DHT22;7234;59.306;18.024;2024-03-02T01:23:29;16.60;99.90
14301;DHT22;7234;59.306;18.024;2024-03-02T01:25:56;16.70;99.90
14301;DHT22;7234;59.306;18.024;2024-03-02T01:28:26;16.60;99.90
14301;DHT22;7234;59.306;18.024;2024-03-02T01:30:54;16.30;99.90
14301;DHT22;7234;59.306;18.024;2024-03-02T01:33:24;16.40;99.90
14301;DHT22;7234;59.306;18.024;2024-03-02T01:35:51;16.40;99.90
14301;DHT22;7234;59.306;18.024;2024-03-02T01:38:18;16.00;99.90
14301;DHT22;7234;59.306;18.024;2024-03-02T01:40:46;16.30;99.90
14301;DHT22;7234;59.306;18.024;2024-03-02T01:43:13;17.00;99.90
14301;DHT22;7234;59.306;18.024;2024-03-02T01:45:40;17.00;99.90
14301;DHT22;7234;59.306;18.024;2024-03-02T01:48:09;16.70;99.90
14301;DHT22;7234;59.306;18.024;2024-03-02T01:50:36;16.90;99.90
14301;DHT22;7234;59.306;18.024;2024-03-02T01:53:04;17.30;99.90
14301;DHT22;7234;59.306;18.024;2024-03-02T01:55:31;17.10;99.90
14301;DHT22;7234;59.306;18.024;2024-03-02T01:58:00;16.80;99.90
14301;DHT22;7234;59.306;18.024;2024-03-02T02:00:30;16.80;99.90
14301;DHT22;7234;59.306;18.024;2024-03-02T02:02:58;16.60;99.90
14301;DHT22;7234;59.306;18.024;2024-03-02T02:05:26;16.70;99.90
14301;DHT22;7234;59.306;18.024;2024-03-02T02:07:53;17.00;99.90
14301;DHT22;7234;59.306;18.024;2024-03-02T02:10:28;17.00;99.90
14301;DHT22;7234;59.306;18.024;2024-03-02T02:12:55;17.30;99.90
14301;DHT22;7234;59.306;18.024;2024-03-02T02:15:26;17.50;99.90
14301;DHT22;7234;59.306;18.024;2024-03-02T02:17:53;17.30;99.90
14301;DHT22;7234;59.306;18.024;2024-03-02T02:20:20;17.10;99.90
14301;DHT22;7234;59.306;18.024;2024-03-02T02:22:59;17.10;99.90
14301;DHT22;7234;59.306;18.024;2024-03-02T02:25:29;17.40;99.90
14301;DHT22;7234;59.306;18.024;2024-03-02T02:27:58;17.80;99.90
14301;DHT22;7234;59.306;18.024;2024-03-02T02:30:27;17.80;99.90
14301;DHT22;7234;59.306;18.024;2024-03-02T02:32:54;17.50;99.90
14301;DHT22;7234;59.306;18.024;2024-03-02T02:35:21;17.40;99.90
14301;DHT22;7234;59.306;18.024;2024-03-02T02:37:50;17.10;99.90
14301;DHT22;7234;59.306;18.024;2024-03-02T02:40:20;17.30;99.90
14301;DHT22;7234;59.306;18.024;2024-03-02T02:42:47;17.30;99.90
14301;DHT22;7234;59.306;18.024;2024-03-02T02:45:18;17.70;99.90
14301;DHT22;7234;59.306;18.024;2024-03-02T02:47:48;17.40;99.90
14301;DHT22;7234;59.306;18.024;2024-03-02T02:50:15;17.60;99.90
14301;DHT22;7234;59.306;18.024;2024-03-02T02:52:42;17.50;99.90
14301;DHT22;7234;59.306;18.024;2024-03-02T02:55:11;17.50;99.90
14301;DHT22;7234;59.306;18.024;2024-03-02T02:57:44;17.30;99.90
14301;DHT22;7234;59.306;18.024;2024-03-02T03:00:17;17.30;99.90
14301;DHT22;7234;59.306;18.024;2024-03-02T03:02:47;17.00;99.90
14301;DHT22;7234;59.306;18.024;2024-03-02T03:05:14;17.10;99.90
14301;DHT22;7234;59.306;18.024;2024-03-02T03:07:42;16.80;99.90
14301;DHT22;7234;59.306;18.024;2024-03-02T03:10:10;17.00;99.90
14301;DHT22;7234;59.306;18.024;2024-03-02T03:12:37;16.80;99.90
14301;DHT22;7234;59.306;18.024;2024-03-02T03:15:09;17.00;99.90
14301;DHT22;7234;59.306;18.024;2024-03-02T03:17:36;16.80;99.90
14301;DHT22;7234;59.306;18.024;2024-03-02T03:20:05;16.60;99.90
14301;DHT22;7234;59.306;18.024;2024-03-02T03:22:35;16.80;99.90
14301;DHT22;7234;59.306;18.024;2024-03-02T03:25:02;16.90;99.90
14301;DHT22;7234;59.306;18.024;2024-03-02T03:27:30;16.80;99.90
14301;DHT22;7234;59.306;18.024;2024-03-02T03:29:57;16.00;99.90
14301;DHT22;7234;59.306;18.024;2024-03-02T03:32:26;15.50;99.90
14301;DHT22;7234;59.306;18.024;2024-03-02T03:34:53;15.60;99.90
14301;DHT22;7234;59.306;18.024;2024-03-02T03:37:20;15.80;99.90
14301;DHT22;7234;59.306;18.024;2024-03-02T03:39:47;15.90;99.90
14301;DHT22;7234;59.306;18.024;2024-03-02T03:42:14;16.40;99.90
14301;DHT22;7234;59.306;18.024;2024-03-02T03:44:41;16.30;99.90
14301;DHT22;7234;59.306;18.024;2024-03-02T03:47:08;16.50;99.90
14301;DHT22;7234;59.306;18.024;2024-03-02T03:49:36;16.30;99.90
14301;DHT22;7234;59.306;18.024;2024-03-02T03:52:04;16.10;99.90
14301;DHT22;7234;59.306;18.024;2024-03-02T03:54:31;16.20;99.90
14301;DHT22;7234;59.306;18.024;2024-03-02T03:56:58;15.80;99.90
14301;DHT22;7234;59.306;18.024;2024-03-02T03:59:25;15.90;99.90
14301;DHT22;7234;59.306;18.024;2024-03-02T04:01:52;15.90;99.90
14301;DHT22;7234;59.306;18.024;2024-03-02T04:04:19;15.80;99.90
14301;DHT22;7234;59.306;18.024;2024-03-02T04:06:47;16.10;99.90
14301;DHT22;7234;59.306;18.024;2024-03-02T04:09:14;15.40;99.90
14301;DHT22;7234;59.306;18.024;2024-03-02T04:11:41;15.90;99.90
14301;DHT22;7234;59.306;18.024;2024-03-02T04:14:10;15.80;99.90
14301;DHT22;7234;59.306;18.024;2024-03-02T04:16:38;16.00;99.90
14301;DHT22;7234;59.306;18.024;2024-03-02T04:19:11;15.90;99.90
14301;DHT22;7234;59.306;18.024;2024-03-02T04:21:38;15.90;99.90
14301;DHT22;7234;59.306;18.024;2024-03-02T04:24:06;15.90;99.90
14301;DHT22;7234;59.306;18.024;2024-03-02T04:26:33;15.80;99.90
14301;DHT22;7234;59.306;18.024;2024-03-02T04:29:00;15.80;99.90
14301;DHT22;7234;59.306;18.024;2024-03-02T04:31:27;15.50;99.90
14301;DHT22;7234;59.306;18.024;2024-03-02T04:33:56;14.90;99.90
14301;DHT22;7234;59.306;18.024;2024-03-02T04:36:26;14.80;99.90
14301;DHT22;7234;59.306;18.024;2024-03-02T04:38:53;15.00;99.90
14301;DHT22;7234;59.306;18.024;2024-03-02T04:41:24;15.10;99.90
14301;DHT22;7234;59.306;18.024;2024-03-02T04:43:51;14.90;99.90
14301;DHT22;7234;59.306;18.024;2024-03-02T04:46:18;15.10;99.90
14301;DHT22;7234;59.306;18.024;2024-03-02T04:48:45;15.40;99.90
14301;DHT22;7234;59.306;18.024;2024-03-02T04:51:12;15.60;99.90
14301;DHT22;7234;59.306;18.024;2024-03-02T04:53:39;15.60;99.90
14301;DHT22;7234;59.306;18.024;2024-03-02T04:56:06;15.50;99.90
14301;DHT22;7234;59.306;18.024;2024-03-02T04:58:51;15.50;99.90
14301;DHT22;7234;59.306;18.024;2024-03-02T05:01:18;15.30;99.90
14301;DHT22;7234;59.306;18.024;2024-03-02T05:03:45;15.50;99.90
14301;DHT22;7234;59.306;18.024;2024-03-02T05:06:12;15.50;99.90
14301;DHT22;7234;59.306;18.024;2024-03-02T05:08:39;15.40;99.90
14301;DHT22;7234;59.306;18.024;2024-03-02T05:11:10;15.40;99.90
14301;DHT22;7234;59.306;18.024;2024-03-02T05:13:56;16.10;99.90
14301;DHT22;7234;59.306;18.024;2024-03-02T05:16:23;16.30;99.90
14301;DHT22;7234;59.306;18.024;2024-03-02T05:18:52;16.30;99.90
14301;DHT22;7234;59.306;18.024;2024-03-02T05:21:19;17.00;99.90
14301;DHT22;7234;59.306;18.024;2024-03-02T05:26:16;17.30;99.90
14301;DHT22;7234;59.306;18.024;2024-03-02T05:28:43;17.30;99.90
14301;DHT22;7234;59.306;18.024;2024-03-02T05:31:15;16.90;99.90
14301;DHT22;7234;59.306;18.024;2024-03-02T05:33:42;17.00;99.90
14301;DHT22;7234;59.306;18.024;2024-03-02T05:36:09;16.80;99.90
14301;DHT22;7234;59.306;18.024;2024-03-02T05:38:36;16.40;99.90
14301;DHT22;7234;59.306;18.024;2024-03-02T05:41:04;16.30;99.90
14301;DHT22;7234;59.306;18.024;2024-03-02T05:43:31;16.20;99.90
14301;DHT22;7234;59.306;18.024;2024-03-02T05:45:58;16.40;99.90
14301;DHT22;7234;59.306;18.024;2024-03-02T05:48:26;16.60;99.90
14301;DHT22;7234;59.306;18.024;2024-03-02T05:50:53;16.80;99.90
14301;DHT22;7234;59.306;18.024;2024-03-02T05:53:26;16.80;99.90
14301;DHT22;7234;59.306;18.024;2024-03-02T05:55:53;17.10;99.90
14301;DHT22;7234;59.306;18.024;2024-03-02T05:58:21;16.60;99.90
14301;DHT22;7234;59.306;18.024;2024-03-02T06:00:59;16.30;99.90
14301;DHT22;7234;59.306;18.024;2024-03-02T06:03:28;16.40;99.90
14301;DHT22;7234;59.306;18.024;2024-03-02T06:05:55;16.40;99.90
14301;DHT22;7234;59.306;18.024;2024-03-02T06:08:22;16.30;99.90
14301;DHT22;7234;59.306;18.024;2024-03-02T06:10:49;16.10;99.90
14301;DHT22;7234;59.306;18.024;2024-03-02T06:13:16;16.00;99.90
14301;DHT22;7234;59.306;18.024;2024-03-02T06:15:43;16.10;99.90
14301;DHT22;7234;59.306;18.024;2024-03-02T06:18:10;16.20;99.90
14301;DHT22;7234;59.306;18.024;2024-03-02T06:20:38;15.90;99.90
14301;DHT22;7234;59.306;18.024;2024-03-02T06:23:06;15.90;99.90
14301;DHT22;7234;59.306;18.024;2024-03-02T06:25:32;15.80;99.90
14301;DHT22;7234;59.306;18.024;2024-03-02T06:28:00;16.00;99.90
14301;DHT22;7234;59.306;18.024;2024-03-02T06:30:27;15.90;99.90
14301;DHT22;7234;59.306;18.024;2024-03-02T06:32:56;16.10;99.90
14301;DHT22;7234;59.306;18.024;2024-03-02T06:35:26;16.10;99.90
14301;DHT22;7234;59.306;18.024;2024-03-02T06:37:54;15.50;99.90
14301;DHT22;7234;59.306;18.024;2024-03-02T06:40:22;15.40;99.90
14301;DHT22;7234;59.306;18.024;2024-03-02T06:42:49;15.40;99.90
14301;DHT22;7234;59.306;18.024;2024-03-02T06:45:16;15.70;99.90
14301;DHT22;7234;59.306;18.024;2024-03-02T06:47:43;15.80;99.90
14301;DHT22;7234;59.306;18.024;2024-03-02T06:50:10;15.80;99.90
14301;DHT22;7234;59.306;18.024;2024-03-02T06:52:37;15.90;99.90
14301;DHT22;7234;59.306;18.024;2024-03-02T06:55:06;15.60;99.90
14301;DHT22;7234;59.306;18.024;2024-03-02T06:57:33;15.30;99.90
14301;DHT22;7234;59.306;18.024;2024-03-02T07:00:00;15.40;99.90
14301;DHT22;7234;59.306;18.024;2024-03-02T07:02:30;15.80;99.90
14301;DHT22;7234;59.306;18.024;2024-03-02T07:04:58;15.90;99.90
14301;DHT22;7234;59.306;18.024;2024-03-02T07:07:25;16.00;99.90
14301;DHT22;7234;59.306;18.024;2024-03-02T07:09:52;16.10;99.90
14301;DHT22;7234;59.306;18.024;2024-03-02T07:12:19;16.00;99.90
14301;DHT22;7234;59.306;18.024;2024-03-02T07:14:46;16.00;99.90
14301;DHT22;7234;59.306;18.024;2024-03-02T07:17:37;16.00;99.90
14301;DHT22;7234;59.306;18.024;2024-03-02T07:20:06;15.50;99.90
14301;DHT22;7234;59.306;18.024;2024-03-02T07:22:33;15.80;99.90
14301;DHT22;7234;59.306;18.024;2024-03-02T07:25:00;16.00;99.90
14301;DHT22;7234;59.306;18.024;2024-03-02T07:27:31;16.10;99.90
14301;DHT22;7234;59.306;18.024;2024-03-02T07:29:58;16.10;99.90
14301;DHT22;7234;59.306;18.024;2024-03-02T07:32:25;15.90;99.90
14301;DHT22;7234;59.306;18.024;2024-03-02T07:34:52;15.40;99.90
14301;DHT22;7234;59.306;18.024;2024-03-02T07:37:19;15.10;99.90
14301;DHT22;7234;59.306;18.024;2024-03-02T07:39:49;15.00;99.90
14301;DHT22;7234;59.306;18.024;2024-03-02T07:42:16;14.90;99.90
14301;DHT22;7234;59.306;18.024;2024-03-02T07:44:45;15.00;99.90
14301;DHT22;7234;59.306;18.024;2024-03-02T07:47:12;15.10;99.90
14301;DHT22;7234;59.306;18.024;2024-03-02T07:49:40;14.60;99.90
14301;DHT22;7234;59.306;18.024;2024-03-02T07:52:07;14.40;99.90
14301;DHT22;7234;59.306;18.024;2024-03-02T07:54:34;13.90;99.90
14301;DHT22;7234;59.306;18.024;2024-03-02T07:57:02;13.90;99.90
14301;DHT22;7234;59.306;18.024;2024-03-02T07:59:29;14.10;99.90
14301;DHT22;7234;59.306;18.024;2024-03-02T08:01:58;14.10;99.90
14301;DHT22;7234;59.306;18.024;2024-03-02T08:04:29;14.10;99.90
14301;DHT22;7234;59.306;18.024;2024-03-02T08:06:56;14.10;99.90
14301;DHT22;7234;59.306;18.024;2024-03-02T08:09:25;14.20;99.90
14301;DHT22;7234;59.306;18.024;2024-03-02T08:11:52;13.90;99.90
14301;DHT22;7234;59.306;18.024;2024-03-02T08:14:19;13.00;99.90
14301;DHT22;7234;59.306;18.024;2024-03-02T08:16:49;12.90;99.90
14301;DHT22;7234;59.306;18.024;2024-03-02T08:19:18;12.70;99.90
14301;DHT22;7234;59.306;18.024;2024-03-02T08:21:45;12.90;99.90
14301;DHT22;7234;59.306;18.024;2024-03-02T08:24:12;12.70;99.90
14301;DHT22;7234;59.306;18.024;2024-03-02T08:26:42;12.30;99.90
14301;DHT22;7234;59.306;18.024;2024-03-02T08:29:15;12.50;99.90
14301;DHT22;7234;59.306;18.024;2024-03-02T08:31:42;12.20;99.90
14301;DHT22;7234;59.306;18.024;2024-03-02T08:34:09;12.20;99.90
14301;DHT22;7234;59.306;18.024;2024-03-02T08:36:37;12.00;99.90
14301;DHT22;7234;59.306;18.024;2024-03-02T08:39:05;12.10;99.90
14301;DHT22;7234;59.306;18.024;2024-03-02T08:41:41;12.20;99.90
14301;DHT22;7234;59.306;18.024;2024-03-02T08:44:08;12.70;99.90
14301;DHT22;7234;59.306;18.024;2024-03-02T08:46:35;12.80;99.90
14301;DHT22;7234;59.306;18.024;2024-03-02T08:49:02;12.70;99.90
14301;DHT22;7234;59.306;18.024;2024-03-02T08:51:29;13.00;99.90
14301;DHT22;7234;59.306;18.024;2024-03-02T08:53:59;12.90;99.90
14301;DHT22;7234;59.306;18.024;2024-03-02T08:56:26;12.90;99.90
14301;DHT22;7234;59.306;18.024;2024-03-02T08:58:53;12.90;99.90
14301;DHT22;7234;59.306;18.024;2024-03-02T09:01:20;13.10;99.90
14301;DHT22;7234;59.306;18.024;2024-03-02T09:03:47;12.60;99.90
14301;DHT22;7234;59.306;18.024;2024-03-02T09:06:15;12.60;99.90
14301;DHT22;7234;59.306;18.024;2024-03-02T09:08:43;12.30;99.90
14301;DHT22;7234;59.306;18.024;2024-03-02T09:11:12;12.30;99.90
14301;DHT22;7234;59.306;18.024;2024-03-02T09:13:41;12.30;99.90
14301;DHT22;7234;59.306;18.024;2024-03-02T09:16:10;12.10;99.90
14301;DHT22;7234;59.306;18.024;2024-03-02T09:18:37;12.00;99.90
14301;DHT22;7234;59.306;18.024;2024-03-02T09:21:05;12.50;99.90
14301;DHT22;7234;59.306;18.024;2024-03-02T09:23:33;13.00;99.90
14301;DHT22;7234;59.306;18.024;2024-03-02T09:26:01;12.70;99.90
14301;DHT22;7234;59.306;18.024;2024-03-02T09:28:30;13.20;99.90
14301;DHT22;7234;59.306;18.024;2024-03-02T09:30:57;13.00;99.90
14301;DHT22;7234;59.306;18.024;2024-03-02T09:33:24;13.40;99.90
14301;DHT22;7234;59.306;18.024;2024-03-02T09:35:51;13.60;99.90
14301;DHT22;7234;59.306;18.024;2024-03-02T09:38:18;14.10;99.90
14301;DHT22;7234;59.306;18.024;2024-03-02T09:40:45;14.00;99.90
14301;DHT22;7234;59.306;18.024;2024-03-02T09:43:15;13.40;99.90
14301;DHT22;7234;59.306;18.024;2024-03-02T09:45:47;13.60;99.90
14301;DHT22;7234;59.306;18.024;2024-03-02T09:48:14;13.90;99.90
14301;DHT22;7234;59.306;18.024;2024-03-02T09:50:44;13.70;99.90
14301;DHT22;7234;59.306;18.024;2024-03-02T09:53:12;13.70;99.90
14301;DHT22;7234;59.306;18.024;2024-03-02T09:55:39;13.70;99.90
14301;DHT22;7234;59.306;18.024;2024-03-02T09:58:09;14.20;99.90
14301;DHT22;7234;59.306;18.024;2024-03-02T10:00:36;14.10;99.90
14301;DHT22;7234;59.306;18.024;2024-03-02T10:03:05;14.10;99.90
14301;DHT22;7234;59.306;18.024;2024-03-02T10:05:38;13.40;99.90
14301;DHT22;7234;59.306;18.024;2024-03-02T10:08:05;13.60;99.90
14301;DHT22;7234;59.306;18.024;2024-03-02T10:10:37;13.70;99.90
14301;DHT22;7234;59.306;18.024;2024-03-02T10:13:06;13.50;99.90
14301;DHT22;7234;59.306;18.024;2024-03-02T10:15:34;14.00;99.90
14301;DHT22;7234;59.306;18.024;2024-03-02T10:18:03;13.90;99.90
14301;DHT22;7234;59.306;18.024;2024-03-02T10:20:31;13.90;99.90
14301;DHT22;7234;59.306;18.024;2024-03-02T10:23:10;14.40;99.90
14301;DHT22;7234;59.306;18.024;2024-03-02T10:25:38;14.10;99.90
14301;DHT22;7234;59.306;18.024;2024-03-02T10:28:05;14.50;99.90
14301;DHT22;7234;59.306;18.024;2024-03-02T10:30:33;14.70;99.90
14301;DHT22;7234;59.306;18.024;2024-03-02T10:33:01;14.30;99.90
14301;DHT22;7234;59.306;18.024;2024-03-02T10:35:28;14.20;99.90
14301;DHT22;7234;59.306;18.024;2024-03-02T10:38:06;14.00;99.90
14301;DHT22;7234;59.306;18.024;2024-03-02T10:40:33;13.40;99.90
14301;DHT22;7234;59.306;18.024;2024-03-02T10:43:01;13.40;99.90
14301;DHT22;7234;59.306;18.024;2024-03-02T10:45:31;13.60;99.90
14301;DHT22;7234;59.306;18.024;2024-03-02T10:47:58;13.40;99.90
14301;DHT22;7234;59.306;18.024;2024-03-02T10:50:26;13.40;99.90
14301;DHT22;7234;59.306;18.024;2024-03-02T10:52:53;13.20;99.90
14301;DHT22;7234;59.306;18.024;2024-03-02T10:55:25;13.60;99.90
14301;DHT22;7234;59.306;18.024;2024-03-02T10:57:53;14.10;99.90
14301;DHT22;7234;59.306;18.024;2024-03-02T11:00:26;13.30;99.90
14301;DHT22;7234;59.306;18.024;2024-03-02T11:03:02;13.00;99.90
14301;DHT22;7234;59.306;18.024;2024-03-02T11:05:33;13.10;99.90
14301;DHT22;7234;59.306;18.024;2024-03-02T11:08:02;13.00;99.90
14301;DHT22;7234;59.306;18.024;2024-03-02T11:10:36;12.90;99.90
14301;DHT22;7234;59.306;18.024;2024-03-02T11:13:05;13.10;99.90
14301;DHT22;7234;59.306;18.024;2024-03-02T11:15:36;13.30;99.90
14301;DHT22;7234;59.306;18.024;2024-03-02T11:18:04;13.10;99.90
14301;DHT22;7234;59.306;18.024;2024-03-02T11:20:36;13.10;99.90
14301;DHT22;7234;59.306;18.024;2024-03-02T11:23:05;13.40;99.90
14301;DHT22;7234;59.306;18.024;2024-03-02T11:25:34;12.90;99.90
14301;DHT22;7234;59.306;18.024;2024-03-02T11:28:06;12.30;99.90
14301;DHT22;7234;59.306;18.024;2024-03-02T11:30:50;12.30;99.90
14301;DHT22;7234;59.306;18.024;2024-03-02T11:33:27;12.20;99.90
14301;DHT22;7234;59.306;18.024;2024-03-02T11:35:57;12.10;99.90
14301;DHT22;7234;59.306;18.024;2024-03-02T11:38:31;12.80;99.90
14301;DHT22;7234;59.306;18.024;2024-03-02T11:41:01;12.70;99.90
14301;DHT22;7234;59.306;18.024;2024-03-02T11:43:29;12.70;99.90
14301;DHT22;7234;59.306;18.024;2024-03-02T11:46:00;13.10;99.90
14301;DHT22;7234;59.306;18.024;2024-03-02T11:48:30;13.70;99.90
14301;DHT22;7234;59.306;18.024;2024-03-02T11:50:58;14.10;99.90
14301;DHT22;7234;59.306;18.024;2024-03-02T11:53:27;13.90;99.90
14301;DHT22;7234;59.306;18.024;2024-03-02T11:55:58;14.30;99.90
14301;DHT22;7234;59.306;18.024;2024-03-02T11:58:31;14.10;99.90
14301;DHT22;7234;59.306;18.024;2024-03-02T12:01:00;13.90;99.90
14301;DHT22;7234;59.306;18.024;2024-03-02T12:03:28;14.10;99.90
14301;DHT22;7234;59.306;18.024;2024-03-02T12:05:55;14.70;99.90
14301;DHT22;7234;59.306;18.024;2024-03-02T12:08:22;15.00;99.90
14301;DHT22;7234;59.306;18.024;2024-03-02T12:10:59;14.60;99.90
14301;DHT22;7234;59.306;18.024;2024-03-02T12:13:28;14.20;99.90
14301;DHT22;7234;59.306;18.024;2024-03-02T12:15:56;14.30;99.90
14301;DHT22;7234;59.306;18.024;2024-03-02T12:18:26;14.30;99.90
14301;DHT22;7234;59.306;18.024;2024-03-02T12:20:53;14.10;99.90
14301;DHT22;7234;59.306;18.024;2024-03-02T12:23:22;14.10;99.90
14301;DHT22;7234;59.306;18.024;2024-03-02T12:25:52;14.00;99.90
14301;DHT22;7234;59.306;18.024;2024-03-02T12:28:20;13.60;99.90
14301;DHT22;7234;59.306;18.024;2024-03-02T12:30:48;13.80;99.90
14301;DHT22;7234;59.306;18.024;2024-03-02T12:33:17;13.90;99.90
14301;DHT22;7234;59.306;18.024;2024-03-02T12:35:44;13.70;99.90
14301;DHT22;7234;59.306;18.024;2024-03-02T12:38:14;13.90;99.90
14301;DHT22;7234;59.306;18.024;2024-03-02T12:40:41;13.70;99.90
14301;DHT22;7234;59.306;18.024;2024-03-02T12:43:09;13.40;99.90
14301;DHT22;7234;59.306;18.024;2024-03-02T12:45:37;13.60;99.90
14301;DHT22;7234;59.306;18.024;2024-03-02T12:48:06;13.90;99.90
14301;DHT22;7234;59.306;18.024;2024-03-02T12:50:33;14.30;99.90
14301;DHT22;7234;59.306;18.024;2024-03-02T12:53:01;14.80;99.90
14301;DHT22;7234;59.306;18.024;2024-03-02T12:55:28;14.50;99.90
14301;DHT22;7234;59.306;18.024;2024-03-02T12:57:55;14.30;99.90
14301;DHT22;7234;59.306;18.024;2024-03-02T13:00:22;14.00;99.90
14301;DHT22;7234;59.306;18.024;2024-03-02T13:02:50;14.00;99.90
14301;DHT22;7234;59.306;18.024;2024-03-02T13:05:18;14.00;99.90
14301;DHT22;7234;59.306;18.024;2024-03-02T13:07:47;13.90;99.90
14301;DHT22;7234;59.306;18.024;2024-03-02T13:10:14;13.60;99.90
14301;DHT22;7234;59.306;18.024;2024-03-02T13:12:41;13.50;99.90
14301;DHT22;7234;59.306;18.024;2024-03-02T13:15:09;13.40;99.90
14301;DHT22;7234;59.306;18.024;2024-03-02T13:17:39;13.90;99.90
14301;DHT22;7234;59.306;18.024;2024-03-02T13:20:06;13.80;99.90
14301;DHT22;7234;59.306;18.024;2024-03-02T13:22:37;13.60;99.90
14301;DHT22;7234;59.306;18.024;2024-03-02T13:25:05;13.70;99.90
14301;DHT22;7234;59.306;18.024;2024-03-02T13:27:34;13.40;99.90
14301;DHT22;7234;59.306;18.024;2024-03-02T13:30:02;13.20;99.90
14301;DHT22;7234;59.306;18.024;2024-03-02T13:32:31;13.10;99.90
14301;DHT22;7234;59.306;18.024;2024-03-02T13:34:58;13.20;99.90
14301;DHT22;7234;59.306;18.024;2024-03-02T13:37:25;13.20;99.90
14301;DHT22;7234;59.306;18.024;2024-03-02T13:39:54;13.00;99.90
14301;DHT22;7234;59.306;18.024;2024-03-02T13:42:21;13.10;99.90
14301;DHT22;7234;59.306;18.024;2024-03-02T13:44:48;13.30;99.90
14301;DHT22;7234;59.306;18.024;2024-03-02T13:47:17;13.10;99.90
14301;DHT22;7234;59.306;18.024;2024-03-02T13:49:46;12.80;99.90
14301;DHT22;7234;59.306;18.024;2024-03-02T13:52:14;13.00;99.90
14301;DHT22;7234;59.306;18.024;2024-03-02T13:54:43;13.50;99.90
14301;DHT22;7234;59.306;18.024;2024-03-02T13:57:15;12.80;99.90
14301;DHT22;7234;59.306;18.024;2024-03-02T13:59:45;13.10;99.90
14301;DHT22;7234;59.306;18.024;2024-03-02T14:02:12;13.50;99.90
14301;DHT22;7234;59.306;18.024;2024-03-02T14:04:39;13.90;99.90
14301;DHT22;7234;59.306;18.024;2024-03-02T14:07:07;14.00;99.90
14301;DHT22;7234;59.306;18.024;2024-03-02T14:09:34;13.80;99.90
14301;DHT22;7234;59.306;18.024;2024-03-02T14:12:03;13.40;99.90
14301;DHT22;7234;59.306;18.024;2024-03-02T14:14:33;13.40;99.90
14301;DHT22;7234;59.306;18.024;2024-03-02T14:17:00;13.00;99.90
14301;DHT22;7234;59.306;18.024;2024-03-02T14:19:32;13.30;99.90
14301;DHT22;7234;59.306;18.024;2024-03-02T14:22:01;13.40;99.90
14301;DHT22;7234;59.306;18.024;2024-03-02T14:24:28;13.30;99.90
14301;DHT22;7234;59.306;18.024;2024-03-02T14:26:55;12.60;99.90
14301;DHT22;7234;59.306;18.024;2024-03-02T14:29:25;12.50;99.90
14301;DHT22;7234;59.306;18.024;2024-03-02T14:31:53;12.50;99.90
14301;DHT22;7234;59.306;18.024;2024-03-02T14:34:20;12.20;99.90
14301;DHT22;7234;59.306;18.024;2024-03-02T14:36:47;12.40;99.90
14301;DHT22;7234;59.306;18.024;2024-03-02T14:39:14;12.70;99.90
14301;DHT22;7234;59.306;18.024;2024-03-02T14:41:41;12.10;99.90
14301;DHT22;7234;59.306;18.024;2024-03-02T14:44:09;12.40;99.90
14301;DHT22;7234;59.306;18.024;2024-03-02T14:46:36;12.40;99.90
14301;DHT22;7234;59.306;18.024;2024-03-02T14:49:05;12.80;99.90
14301;DHT22;7234;59.306;18.024;2024-03-02T14:51:32;12.90;99.90
14301;DHT22;7234;59.306;18.024;2024-03-02T14:53:59;12.70;99.90
14301;DHT22;7234;59.306;18.024;2024-03-02T14:56:26;12.40;99.90
14301;DHT22;7234;59.306;18.024;2024-03-02T14:58:54;12.90;99.90
14301;DHT22;7234;59.306;18.024;2024-03-02T15:01:21;12.70;99.90
14301;DHT22;7234;59.306;18.024;2024-03-02T15:03:49;12.80;99.90
14301;DHT22;7234;59.306;18.024;2024-03-02T15:06:17;12.80;99.90
14301;DHT22;7234;59.306;18.024;2024-03-02T15:08:45;13.00;99.90
14301;DHT22;7234;59.306;18.024;2024-03-02T15:11:12;12.30;99.90
14301;DHT22;7234;59.306;18.024;2024-03-02T15:13:40;13.00;99.90
14301;DHT22;7234;59.306;18.024;2024-03-02T15:16:07;13.20;99.90
14301;DHT22;7234;59.306;18.024;2024-03-02T15:18:34;13.30;99.90
14301;DHT22;7234;59.306;18.024;2024-03-02T15:21:01;13.30;99.90
14301;DHT22;7234;59.306;18.024;2024-03-02T15:23:30;13.10;99.90
14301;DHT22;7234;59.306;18.024;2024-03-02T15:25:57;13.00;99.90
14301;DHT22;7234;59.306;18.024;2024-03-02T15:28:24;13.00;99.90
14301;DHT22;7234;59.306;18.024;2024-03-02T15:30:51;13.20;99.90
14301;DHT22;7234;59.306;18.024;2024-03-02T15:33:18;13.30;99.90
14301;DHT22;7234;59.306;18.024;2024-03-02T15:35:49;13.80;99.90
14301;DHT22;7234;59.306;18.024;2024-03-02T15:38:16;13.80;99.90
14301;DHT22;7234;59.306;18.024;2024-03-02T15:40:45;13.50;99.90